History Data

Date (GMT-7:00) CPM ACPM uSv/h Latitude Longitude Altitude CO CO2 TVOC HCHO Air Pressure Temperature Humidity Type
2026-01-13 18:10:07 16 18.90 0.080000 41.649648 41.62752893 0 0 0 0 0 0 0 0 STD5.60
2026-01-13 18:05:05 19 17.10 0.095000 41.649648 41.62752893 0 0 0 0 0 0 0 0 STD5.60
2026-01-13 18:00:04 18 16.50 0.090000 41.649648 41.62752893 0 0 0 0 0 0 0 0 STD5.60
2026-01-13 17:55:02 16 18.20 0.080000 41.649648 41.62752893 0 0 0 0 0 0 0 0 STD5.60
2026-01-13 17:49:59 14 18.80 0.070000 41.649648 41.62752893 0 0 0 0 0 0 0 0 STD5.60
2026-01-13 17:44:57 12 17.00 0.060000 41.649648 41.62752893 0 0 0 0 0 0 0 0 STD5.60
2026-01-13 17:39:55 15 17.20 0.075000 41.649648 41.62752893 0 0 0 0 0 0 0 0 STD5.60
2026-01-13 17:34:53 26 19.00 0.130000 41.649648 41.62752893 0 0 0 0 0 0 0 0 STD5.60
2026-01-13 17:29:51 31 20.30 0.155000 41.649648 41.62752893 0 0 0 0 0 0 0 0 STD5.60
2026-01-13 17:24:49 26 20.20 0.130000 41.649648 41.62752893 0 0 0 0 0 0 0 0 STD5.60
2026-01-13 17:19:47 19 20.80 0.095000 41.649648 41.62752893 0 0 0 0 0 0 0 0 STD5.60
2026-01-13 17:14:45 25 18.30 0.125000 41.649648 41.62752893 0 0 0 0 0 0 0 0 STD5.60
2026-01-13 17:09:42 10 14.40 0.050000 41.649648 41.62752893 0 0 0 0 0 0 0 0 STD5.60
2026-01-13 17:04:39 17 17.10 0.085000 41.649648 41.62752893 0 0 0 0 0 0 0 0 STD5.60
2026-01-13 16:59:37 25 17.50 0.125000 41.649648 41.62752893 0 0 0 0 0 0 0 0 STD5.60
2026-01-13 16:54:35 12 17.90 0.060000 41.649648 41.62752893 0 0 0 0 0 0 0 0 STD5.60
2026-01-13 16:49:34 18 19.00 0.090000 41.649648 41.62752893 0 0 0 0 0 0 0 0 STD5.60
2026-01-13 16:44:32 17 18.00 0.085000 41.649648 41.62752893 0 0 0 0 0 0 0 0 STD5.60
2026-01-13 16:39:30 20 17.10 0.100000 41.649648 41.62752893 0 0 0 0 0 0 0 0 STD5.60
2026-01-13 16:34:28 20 18.60 0.100000 41.649648 41.62752893 0 0 0 0 0 0 0 0 STD5.60
2026-01-13 16:29:26 27 19.90 0.135000 41.649648 41.62752893 0 0 0 0 0 0 0 0 STD5.60
2026-01-13 16:24:24 19 17.60 0.095000 41.649648 41.62752893 0 0 0 0 0 0 0 0 STD5.60
2026-01-13 16:19:22 16 16.90 0.080000 41.649648 41.62752893 0 0 0 0 0 0 0 0 STD5.60
2026-01-13 16:14:20 17 17.70 0.085000 41.649648 41.62752893 0 0 0 0 0 0 0 0 STD5.60
2026-01-13 16:09:16 20 17.20 0.100000 41.649648 41.62752893 0 0 0 0 0 0 0 0 STD5.60
2026-01-13 16:04:14 13 18.40 0.065000 41.649648 41.62752893 0 0 0 0 0 0 0 0 STD5.60
2026-01-13 15:59:12 22 19.90 0.110000 41.649648 41.62752893 0 0 0 0 0 0 0 0 STD5.60
2026-01-13 15:54:10 19 17.30 0.095000 41.649648 41.62752893 0 0 0 0 0 0 0 0 STD5.60
2026-01-13 15:49:08 19 17.00 0.095000 41.649648 41.62752893 0 0 0 0 0 0 0 0 STD5.60
2026-01-13 15:44:06 13 19.80 0.065000 41.649648 41.62752893 0 0 0 0 0 0 0 0 STD5.60
2026-01-13 15:39:04 16 21.60 0.080000 41.649648 41.62752893 0 0 0 0 0 0 0 0 STD5.60
2026-01-13 15:34:02 24 21.50 0.120000 41.649648 41.62752893 0 0 0 0 0 0 0 0 STD5.60
2026-01-13 15:29:00 22 21.10 0.110000 41.649648 41.62752893 0 0 0 0 0 0 0 0 STD5.60
2026-01-13 15:23:58 20 20.90 0.100000 41.649648 41.62752893 0 0 0 0 0 0 0 0 STD5.60
2026-01-13 15:18:57 25 16.80 0.125000 41.649648 41.62752893 0 0 0 0 0 0 0 0 STD5.60
2026-01-13 15:13:54 13 16.30 0.065000 41.649648 41.62752893 0 0 0 0 0 0 0 0 STD5.60
2026-01-13 15:08:51 18 17.50 0.090000 41.649648 41.62752893 0 0 0 0 0 0 0 0 STD5.60
2026-01-13 15:03:49 16 18.20 0.080000 41.649648 41.62752893 0 0 0 0 0 0 0 0 STD5.60
2026-01-13 14:58:47 24 20.30 0.120000 41.649648 41.62752893 0 0 0 0 0 0 0 0 STD5.60
2026-01-13 14:53:45 35 18.70 0.175000 41.649648 41.62752893 0 0 0 0 0 0 0 0 STD5.60
2026-01-13 14:48:43 17 17.40 0.085000 41.649648 41.62752893 0 0 0 0 0 0 0 0 STD5.60
2026-01-13 14:43:41 23 18.60 0.115000 41.649648 41.62752893 0 0 0 0 0 0 0 0 STD5.60
2026-01-13 14:38:39 16 18.70 0.080000 41.649648 41.62752893 0 0 0 0 0 0 0 0 STD5.60
2026-01-13 14:33:37 22 17.40 0.110000 41.649648 41.62752893 0 0 0 0 0 0 0 0 STD5.60
2026-01-13 14:28:35 16 17.10 0.080000 41.649648 41.62752893 0 0 0 0 0 0 0 0 STD5.60
2026-01-13 14:23:33 25 16.90 0.125000 41.649648 41.62752893 0 0 0 0 0 0 0 0 STD5.60
2026-01-13 14:18:31 21 15.10 0.105000 41.649648 41.62752893 0 0 0 0 0 0 0 0 STD5.60
2026-01-13 14:13:29 18 15.10 0.090000 41.649648 41.62752893 0 0 0 0 0 0 0 0 STD5.60
2026-01-13 14:08:24 16 18.60 0.080000 41.649648 41.62752893 0 0 0 0 0 0 0 0 STD5.60
2026-01-13 14:03:23 23 20.60 0.115000 41.649648 41.62752893 0 0 0 0 0 0 0 0 STD5.60
2026-01-13 13:58:20 17 18.00 0.085000 41.649648 41.62752893 0 0 0 0 0 0 0 0 STD5.60
2026-01-13 13:53:19 18 18.00 0.090000 41.649648 41.62752893 0 0 0 0 0 0 0 0 STD5.60
2026-01-13 13:48:17 19 20.70 0.095000 41.649648 41.62752893 0 0 0 0 0 0 0 0 STD5.60
2026-01-13 13:43:15 32 19.30 0.160000 41.649648 41.62752893 0 0 0 0 0 0 0 0 STD5.60
2026-01-13 13:38:13 21 16.40 0.105000 41.649648 41.62752893 0 0 0 0 0 0 0 0 STD5.60
2026-01-13 13:33:11 9 18.60 0.045000 41.649648 41.62752893 0 0 0 0 0 0 0 0 STD5.60
2026-01-13 13:28:09 22 18.10 0.110000 41.649648 41.62752893 0 0 0 0 0 0 0 0 STD5.60
2026-01-13 13:23:07 18 17.80 0.090000 41.649648 41.62752893 0 0 0 0 0 0 0 0 STD5.60
2026-01-13 13:18:05 17 19.10 0.085000 41.649648 41.62752893 0 0 0 0 0 0 0 0 STD5.60
2026-01-13 13:13:03 23 17.90 0.115000 41.649648 41.62752893 0 0 0 0 0 0 0 0 STD5.60
2026-01-13 13:07:59 16 17.10 0.080000 41.649648 41.62752893 0 0 0 0 0 0 0 0 STD5.60
2026-01-13 13:02:57 18 17.40 0.090000 41.649648 41.62752893 0 0 0 0 0 0 0 0 STD5.60
2026-01-13 12:57:55 27 16.80 0.135000 41.649648 41.62752893 0 0 0 0 0 0 0 0 STD5.60
2026-01-13 12:52:53 18 17.40 0.090000 41.649648 41.62752893 0 0 0 0 0 0 0 0 STD5.60
2026-01-13 12:47:51 21 18.30 0.105000 41.649648 41.62752893 0 0 0 0 0 0 0 0 STD5.60
2026-01-13 12:42:49 15 17.50 0.075000 41.649648 41.62752893 0 0 0 0 0 0 0 0 STD5.60
2026-01-13 12:37:47 18 18.20 0.090000 41.649648 41.62752893 0 0 0 0 0 0 0 0 STD5.60
2026-01-13 12:32:45 18 19.30 0.090000 41.649648 41.62752893 0 0 0 0 0 0 0 0 STD5.60
2026-01-13 12:27:43 19 19.30 0.095000 41.649648 41.62752893 0 0 0 0 0 0 0 0 STD5.60
2026-01-13 12:22:41 17 19.00 0.085000 41.649648 41.62752893 0 0 0 0 0 0 0 0 STD5.60
2026-01-13 12:17:39 19 19.90 0.095000 41.649648 41.62752893 0 0 0 0 0 0 0 0 STD5.60
2026-01-13 12:12:35 23 18.00 0.115000 41.649648 41.62752893 0 0 0 0 0 0 0 0 STD5.60
2026-01-13 12:07:33 12 15.70 0.060000 41.649648 41.62752893 0 0 0 0 0 0 0 0 STD5.60
2026-01-13 12:02:32 15 16.30 0.075000 41.649648 41.62752893 0 0 0 0 0 0 0 0 STD5.60
2026-01-13 11:57:29 18 17.90 0.090000 41.649648 41.62752893 0 0 0 0 0 0 0 0 STD5.60
2026-01-13 11:52:27 22 18.40 0.110000 41.649648 41.62752893 0 0 0 0 0 0 0 0 STD5.60
2026-01-13 11:47:25 15 17.70 0.075000 41.649648 41.62752893 0 0 0 0 0 0 0 0 STD5.60
2026-01-13 11:42:23 16 18.20 0.080000 41.649648 41.62752893 0 0 0 0 0 0 0 0 STD5.60
2026-01-13 11:37:21 11 17.80 0.055000 41.649648 41.62752893 0 0 0 0 0 0 0 0 STD5.60
2026-01-13 11:32:19 11 16.80 0.055000 41.649648 41.62752893 0 0 0 0 0 0 0 0 STD5.60
2026-01-13 11:27:17 8 17.50 0.040000 41.649648 41.62752893 0 0 0 0 0 0 0 0 STD5.60
2026-01-13 11:22:15 23 16.70 0.115000 41.649648 41.62752893 0 0 0 0 0 0 0 0 STD5.60
2026-01-13 11:17:14 21 7.80 0.105000 41.649648 41.62752893 0 0 0 0 0 0 0 0 STD5.60
2026-01-13 11:12:09 27 17.30 0.135000 41.649648 41.62752893 0 0 0 0 0 0 0 0 STD5.60
2026-01-13 11:07:08 14 16.80 0.070000 41.649648 41.62752893 0 0 0 0 0 0 0 0 STD5.60
2026-01-13 11:02:06 14 15.60 0.070000 41.649648 41.62752893 0 0 0 0 0 0 0 0 STD5.60
2026-01-13 10:57:04 10 15.80 0.050000 41.649648 41.62752893 0 0 0 0 0 0 0 0 STD5.60
2026-01-13 10:52:02 17 17.50 0.085000 41.649648 41.62752893 0 0 0 0 0 0 0 0 STD5.60
2026-01-13 10:47:00 13 19.20 0.065000 41.649648 41.62752893 0 0 0 0 0 0 0 0 STD5.60
2026-01-13 10:41:58 32 19.00 0.160000 41.649648 41.62752893 0 0 0 0 0 0 0 0 STD5.60
2026-01-13 10:36:56 17 18.00 0.085000 41.649648 41.62752893 0 0 0 0 0 0 0 0 STD5.60
2026-01-13 10:31:54 17 19.00 0.085000 41.649648 41.62752893 0 0 0 0 0 0 0 0 STD5.60
2026-01-13 10:26:52 18 17.80 0.090000 41.649648 41.62752893 0 0 0 0 0 0 0 0 STD5.60
2026-01-13 10:21:51 14 18.00 0.070000 41.649648 41.62752893 0 0 0 0 0 0 0 0 STD5.60
2026-01-13 10:16:49 12 17.70 0.060000 41.649648 41.62752893 0 0 0 0 0 0 0 0 STD5.60
2026-01-13 10:11:45 19 17.10 0.095000 41.649648 41.62752893 0 0 0 0 0 0 0 0 STD5.60
2026-01-13 10:06:43 20 18.50 0.100000 41.649648 41.62752893 0 0 0 0 0 0 0 0 STD5.60
2026-01-13 10:01:41 21 17.50 0.105000 41.649648 41.62752893 0 0 0 0 0 0 0 0 STD5.60
2026-01-13 09:56:39 17 16.80 0.085000 41.649648 41.62752893 0 0 0 0 0 0 0 0 STD5.60
2026-01-13 09:51:37 20 17.10 0.100000 41.649648 41.62752893 0 0 0 0 0 0 0 0 STD5.60
2026-01-13 09:46:35 29 16.60 0.145000 41.649648 41.62752893 0 0 0 0 0 0 0 0 STD5.60
2026-01-13 09:41:33 17 17.80 0.085000 41.649648 41.62752893 0 0 0 0 0 0 0 0 STD5.60
2026-01-13 09:36:31 29 19.90 0.145000 41.649648 41.62752893 0 0 0 0 0 0 0 0 STD5.60
2026-01-13 09:31:28 19 18.80 0.095000 41.649648 41.62752893 0 0 0 0 0 0 0 0 STD5.60
2026-01-13 09:26:26 16 15.20 0.080000 41.649648 41.62752893 0 0 0 0 0 0 0 0 STD5.60
2026-01-13 09:21:25 15 15.30 0.075000 41.649648 41.62752893 0 0 0 0 0 0 0 0 STD5.60
2026-01-13 09:16:23 15 16.50 0.075000 41.649648 41.62752893 0 0 0 0 0 0 0 0 STD5.60
2026-01-13 09:11:18 13 14.90 0.065000 41.649648 41.62752893 0 0 0 0 0 0 0 0 STD5.60
2026-01-13 09:06:16 14 17.50 0.070000 41.649648 41.62752893 0 0 0 0 0 0 0 0 STD5.60
2026-01-13 09:01:14 24 18.30 0.120000 41.649648 41.62752893 0 0 0 0 0 0 0 0 STD5.60
2026-01-13 08:56:12 19 19.30 0.095000 41.649648 41.62752893 0 0 0 0 0 0 0 0 STD5.60
2026-01-13 08:51:10 23 21.10 0.115000 41.649648 41.62752893 0 0 0 0 0 0 0 0 STD5.60
2026-01-13 08:46:08 24 19.70 0.120000 41.649648 41.62752893 0 0 0 0 0 0 0 0 STD5.60
2026-01-13 08:41:07 22 18.00 0.110000 41.649648 41.62752893 0 0 0 0 0 0 0 0 STD5.60
2026-01-13 08:36:05 19 16.30 0.095000 41.649648 41.62752893 0 0 0 0 0 0 0 0 STD5.60
2026-01-13 08:31:05 9 17.40 0.045000 41.649648 41.62752893 0 0 0 0 0 0 0 0 STD5.60
2026-01-13 08:26:01 22 16.30 0.110000 41.649648 41.62752893 0 0 0 0 0 0 0 0 STD5.60
2026-01-13 08:20:58 13 15.40 0.065000 41.649648 41.62752893 0 0 0 0 0 0 0 0 STD5.60
2026-01-13 08:15:57 15 16.30 0.075000 41.649648 41.62752893 0 0 0 0 0 0 0 0 STD5.60
2026-01-13 08:10:52 16 16.20 0.080000 41.649648 41.62752893 0 0 0 0 0 0 0 0 STD5.60
2026-01-13 08:05:50 18 16.50 0.090000 41.649648 41.62752893 0 0 0 0 0 0 0 0 STD5.60
2026-01-13 08:00:48 18 15.30 0.090000 41.649648 41.62752893 0 0 0 0 0 0 0 0 STD5.60
2026-01-13 07:55:46 12 14.80 0.060000 41.649648 41.62752893 0 0 0 0 0 0 0 0 STD5.60
2026-01-13 07:50:44 21 18.00 0.105000 41.649648 41.62752893 0 0 0 0 0 0 0 0 STD5.60
2026-01-13 07:45:43 22 18.00 0.110000 41.649648 41.62752893 0 0 0 0 0 0 0 0 STD5.60
2026-01-13 07:40:40 10 16.20 0.050000 41.649648 41.62752893 0 0 0 0 0 0 0 0 STD5.60
2026-01-13 07:35:39 17 17.10 0.085000 41.649648 41.62752893 0 0 0 0 0 0 0 0 STD5.60
2026-01-13 07:30:36 11 16.60 0.055000 41.649648 41.62752893 0 0 0 0 0 0 0 0 STD5.60
2026-01-13 07:25:34 14 17.40 0.070000 41.649648 41.62752893 0 0 0 0 0 0 0 0 STD5.60
2026-01-13 07:20:32 23 21.00 0.115000 41.649648 41.62752893 0 0 0 0 0 0 0 0 STD5.60
2026-01-13 07:15:31 23 20.60 0.115000 41.649648 41.62752893 0 0 0 0 0 0 0 0 STD5.60
2026-01-13 07:10:26 21 18.40 0.105000 41.649648 41.62752893 0 0 0 0 0 0 0 0 STD5.60
2026-01-13 07:05:24 19 18.60 0.095000 41.649648 41.62752893 0 0 0 0 0 0 0 0 STD5.60
2026-01-13 07:00:22 16 19.40 0.080000 41.649648 41.62752893 0 0 0 0 0 0 0 0 STD5.60
2026-01-13 06:55:20 16 18.70 0.080000 41.649648 41.62752893 0 0 0 0 0 0 0 0 STD5.60
2026-01-13 06:50:18 15 17.20 0.075000 41.649648 41.62752893 0 0 0 0 0 0 0 0 STD5.60
2026-01-13 06:45:17 18 16.80 0.090000 41.649648 41.62752893 0 0 0 0 0 0 0 0 STD5.60
2026-01-13 06:40:15 16 17.50 0.080000 41.649648 41.62752893 0 0 0 0 0 0 0 0 STD5.60
2026-01-13 06:35:14 19 18.50 0.095000 41.649648 41.62752893 0 0 0 0 0 0 0 0 STD5.60
2026-01-13 06:30:11 24 18.20 0.120000 41.649648 41.62752893 0 0 0 0 0 0 0 0 STD5.60
2026-01-13 06:25:09 15 17.30 0.075000 41.649648 41.62752893 0 0 0 0 0 0 0 0 STD5.60
2026-01-13 06:20:08 13 17.10 0.065000 41.649648 41.62752893 0 0 0 0 0 0 0 0 STD5.60
2026-01-13 06:15:06 17 17.90 0.085000 41.649648 41.62752893 0 0 0 0 0 0 0 0 STD5.60
2026-01-13 06:10:01 20 17.00 0.100000 41.649648 41.62752893 0 0 0 0 0 0 0 0 STD5.60
2026-01-13 06:04:59 27 16.00 0.135000 41.649648 41.62752893 0 0 0 0 0 0 0 0 STD5.60
2026-01-13 05:59:57 16 17.00 0.080000 41.649648 41.62752893 0 0 0 0 0 0 0 0 STD5.60
2026-01-13 05:54:55 21 18.90 0.105000 41.649648 41.62752893 0 0 0 0 0 0 0 0 STD5.60
2026-01-13 05:49:53 17 17.00 0.085000 41.649648 41.62752893 0 0 0 0 0 0 0 0 STD5.60
2026-01-13 05:44:52 11 15.50 0.055000 41.649648 41.62752893 0 0 0 0 0 0 0 0 STD5.60
2026-01-13 05:39:49 16 17.00 0.080000 41.649648 41.62752893 0 0 0 0 0 0 0 0 STD5.60
2026-01-13 05:34:47 22 17.50 0.110000 41.649648 41.62752893 0 0 0 0 0 0 0 0 STD5.60
2026-01-13 05:29:45 19 16.50 0.095000 41.649648 41.62752893 0 0 0 0 0 0 0 0 STD5.60
2026-01-13 05:24:43 19 18.40 0.095000 41.649648 41.62752893 0 0 0 0 0 0 0 0 STD5.60
2026-01-13 05:19:41 19 19.30 0.095000 41.649648 41.62752893 0 0 0 0 0 0 0 0 STD5.60
2026-01-13 05:14:40 16 18.60 0.080000 41.649648 41.62752893 0 0 0 0 0 0 0 0 STD5.60
2026-01-13 05:09:36 14 18.20 0.070000 41.649648 41.62752893 0 0 0 0 0 0 0 0 STD5.60
2026-01-13 05:04:34 12 16.70 0.060000 41.649648 41.62752893 0 0 0 0 0 0 0 0 STD5.60
2026-01-13 04:59:32 17 17.70 0.085000 41.649648 41.62752893 0 0 0 0 0 0 0 0 STD5.60
2026-01-13 04:54:30 21 16.90 0.105000 41.649648 41.62752893 0 0 0 0 0 0 0 0 STD5.60
2026-01-13 04:49:27 9 15.90 0.045000 41.649648 41.62752893 0 0 0 0 0 0 0 0 STD5.60
2026-01-13 04:44:26 13 16.10 0.065000 41.649648 41.62752893 0 0 0 0 0 0 0 0 STD5.60
2026-01-13 04:39:24 15 16.10 0.075000 41.649648 41.62752893 0 0 0 0 0 0 0 0 STD5.60
2026-01-13 04:34:22 12 17.00 0.060000 41.649648 41.62752893 0 0 0 0 0 0 0 0 STD5.60
2026-01-13 04:29:20 24 18.40 0.120000 41.649648 41.62752893 0 0 0 0 0 0 0 0 STD5.60
2026-01-13 04:24:18 24 18.30 0.120000 41.649648 41.62752893 0 0 0 0 0 0 0 0 STD5.60
2026-01-13 04:19:16 18 16.70 0.090000 41.649648 41.62752893 0 0 0 0 0 0 0 0 STD5.60
2026-01-13 04:14:14 14 18.10 0.070000 41.649648 41.62752893 0 0 0 0 0 0 0 0 STD5.60
2026-01-13 04:09:09 20 18.00 0.100000 41.649648 41.62752893 0 0 0 0 0 0 0 0 STD5.60
2026-01-13 04:04:07 18 17.70 0.090000 41.649648 41.62752893 0 0 0 0 0 0 0 0 STD5.60
2026-01-13 03:59:05 18 17.80 0.090000 41.649648 41.62752893 0 0 0 0 0 0 0 0 STD5.60
2026-01-13 03:54:03 14 16.80 0.070000 41.649648 41.62752893 0 0 0 0 0 0 0 0 STD5.60
2026-01-13 03:49:01 17 17.80 0.085000 41.649648 41.62752893 0 0 0 0 0 0 0 0 STD5.60
2026-01-13 03:44:00 16 16.10 0.080000 41.649648 41.62752893 0 0 0 0 0 0 0 0 STD5.60
2026-01-13 03:38:58 12 15.30 0.060000 41.649648 41.62752893 0 0 0 0 0 0 0 0 STD5.60
2026-01-13 03:33:56 11 18.20 0.055000 41.649648 41.62752893 0 0 0 0 0 0 0 0 STD5.60
2026-01-13 03:28:53 22 20.80 0.110000 41.649648 41.62752893 0 0 0 0 0 0 0 0 STD5.60
2026-01-13 03:23:52 20 21.00 0.100000 41.649648 41.62752893 0 0 0 0 0 0 0 0 STD5.60
2026-01-13 03:18:50 13 18.10 0.065000 41.649648 41.62752893 0 0 0 0 0 0 0 0 STD5.60
2026-01-13 03:13:49 18 17.90 0.090000 41.649648 41.62752893 0 0 0 0 0 0 0 0 STD5.60
2026-01-13 03:08:44 17 18.20 0.085000 41.649648 41.62752893 0 0 0 0 0 0 0 0 STD5.60
2026-01-13 03:03:42 20 16.80 0.100000 41.649648 41.62752893 0 0 0 0 0 0 0 0 STD5.60
2026-01-13 02:58:40 16 16.30 0.080000 41.649648 41.62752893 0 0 0 0 0 0 0 0 STD5.60
2026-01-13 02:53:38 14 15.40 0.070000 41.649648 41.62752893 0 0 0 0 0 0 0 0 STD5.60
2026-01-13 02:48:36 14 16.60 0.070000 41.649648 41.62752893 0 0 0 0 0 0 0 0 STD5.60
2026-01-13 02:43:35 10 18.90 0.050000 41.649648 41.62752893 0 0 0 0 0 0 0 0 STD5.60
2026-01-13 02:38:33 24 17.00 0.120000 41.649648 41.62752893 0 0 0 0 0 0 0 0 STD5.60
2026-01-13 02:33:30 12 14.60 0.060000 41.649648 41.62752893 0 0 0 0 0 0 0 0 STD5.60
2026-01-13 02:28:28 12 17.20 0.060000 41.649648 41.62752893 0 0 0 0 0 0 0 0 STD5.60
2026-01-13 02:23:27 19 18.50 0.095000 41.649648 41.62752893 0 0 0 0 0 0 0 0 STD5.60
2026-01-13 02:18:25 23 17.10 0.115000 41.649648 41.62752893 0 0 0 0 0 0 0 0 STD5.60
2026-01-13 02:13:23 20 15.30 0.100000 41.649648 41.62752893 0 0 0 0 0 0 0 0 STD5.60
2026-01-13 02:08:19 14 15.60 0.070000 41.649648 41.62752893 0 0 0 0 0 0 0 0 STD5.60
2026-01-13 02:03:16 20 18.30 0.100000 41.649648 41.62752893 0 0 0 0 0 0 0 0 STD5.60
2026-01-13 01:58:14 12 20.20 0.060000 41.649648 41.62752893 0 0 0 0 0 0 0 0 STD5.60
2026-01-13 01:53:13 17 18.90 0.085000 41.649648 41.62752893 0 0 0 0 0 0 0 0 STD5.60
2026-01-13 01:48:11 20 16.60 0.100000 41.649648 41.62752893 0 0 0 0 0 0 0 0 STD5.60
2026-01-13 01:43:09 23 18.30 0.115000 41.649648 41.62752893 0 0 0 0 0 0 0 0 STD5.60
2026-01-13 01:38:07 18 17.00 0.090000 41.649648 41.62752893 0 0 0 0 0 0 0 0 STD5.60
2026-01-13 01:33:05 16 18.80 0.080000 41.649648 41.62752893 0 0 0 0 0 0 0 0 STD5.60
2026-01-13 01:28:03 22 21.30 0.110000 41.649648 41.62752893 0 0 0 0 0 0 0 0 STD5.60
2026-01-13 01:23:02 20 19.10 0.100000 41.649648 41.62752893 0 0 0 0 0 0 0 0 STD5.60
2026-01-13 01:18:00 20 17.80 0.100000 41.649648 41.62752893 0 0 0 0 0 0 0 0 STD5.60
2026-01-13 01:12:58 24 18.20 0.120000 41.649648 41.62752893 0 0 0 0 0 0 0 0 STD5.60
2026-01-13 01:07:53 17 16.50 0.085000 41.649648 41.62752893 0 0 0 0 0 0 0 0 STD5.60
2026-01-13 01:02:51 11 16.40 0.055000 41.649648 41.62752893 0 0 0 0 0 0 0 0 STD5.60
2026-01-13 00:57:49 15 18.40 0.075000 41.649648 41.62752893 0 0 0 0 0 0 0 0 STD5.60
2026-01-13 00:52:47 25 16.60 0.125000 41.649648 41.62752893 0 0 0 0 0 0 0 0 STD5.60
2026-01-13 00:47:45 24 15.20 0.120000 41.649648 41.62752893 0 0 0 0 0 0 0 0 STD5.60
2026-01-13 00:42:43 15 18.00 0.075000 41.649648 41.62752893 0 0 0 0 0 0 0 0 STD5.60
2026-01-13 00:37:41 15 18.50 0.075000 41.649648 41.62752893 0 0 0 0 0 0 0 0 STD5.60
2026-01-13 00:32:39 13 17.20 0.065000 41.649648 41.62752893 0 0 0 0 0 0 0 0 STD5.60
2026-01-13 00:27:37 18 16.80 0.090000 41.649648 41.62752893 0 0 0 0 0 0 0 0 STD5.60
2026-01-13 00:22:35 17 16.00 0.085000 41.649648 41.62752893 0 0 0 0 0 0 0 0 STD5.60
2026-01-13 00:17:34 15 15.50 0.075000 41.649648 41.62752893 0 0 0 0 0 0 0 0 STD5.60
2026-01-13 00:12:32 12 17.20 0.060000 41.649648 41.62752893 0 0 0 0 0 0 0 0 STD5.60
2026-01-13 00:07:28 20 17.80 0.100000 41.649648 41.62752893 0 0 0 0 0 0 0 0 STD5.60
2026-01-13 00:02:26 19 17.40 0.095000 41.649648 41.62752893 0 0 0 0 0 0 0 0 STD5.60
2026-01-12 23:57:24 18 18.60 0.090000 41.649648 41.62752893 0 0 0 0 0 0 0 0 STD5.60
2026-01-12 23:52:22 20 19.20 0.100000 41.649648 41.62752893 0 0 0 0 0 0 0 0 STD5.60
2026-01-12 23:47:20 18 18.70 0.090000 41.649648 41.62752893 0 0 0 0 0 0 0 0 STD5.60
2026-01-12 23:42:19 19 17.90 0.095000 41.649648 41.62752893 0 0 0 0 0 0 0 0 STD5.60
2026-01-12 23:37:17 20 17.10 0.100000 41.649648 41.62752893 0 0 0 0 0 0 0 0 STD5.60
2026-01-12 23:32:15 14 17.00 0.070000 41.649648 41.62752893 0 0 0 0 0 0 0 0 STD5.60
2026-01-12 23:27:13 17 18.10 0.085000 41.649648 41.62752893 0 0 0 0 0 0 0 0 STD5.60
2026-01-12 23:22:11 19 16.50 0.095000 41.649648 41.62752893 0 0 0 0 0 0 0 0 STD5.60
2026-01-12 23:17:09 16 15.20 0.080000 41.649648 41.62752893 0 0 0 0 0 0 0 0 STD5.60
2026-01-12 23:12:07 13 15.20 0.065000 41.649648 41.62752893 0 0 0 0 0 0 0 0 STD5.60
2026-01-12 23:07:04 7 17.00 0.035000 41.649648 41.62752893 0 0 0 0 0 0 0 0 STD5.60
2026-01-12 23:02:01 17 17.10 0.085000 41.649648 41.62752893 0 0 0 0 0 0 0 0 STD5.60
2026-01-12 22:57:00 17 16.10 0.085000 41.649648 41.62752893 0 0 0 0 0 0 0 0 STD5.60
2026-01-12 22:51:57 18 17.00 0.090000 41.649648 41.62752893 0 0 0 0 0 0 0 0 STD5.60
2026-01-12 22:46:56 18 15.70 0.090000 41.649648 41.62752893 0 0 0 0 0 0 0 0 STD5.60
2026-01-12 22:41:54 19 18.40 0.095000 41.649648 41.62752893 0 0 0 0 0 0 0 0 STD5.60
2026-01-12 22:36:53 17 19.80 0.085000 41.649648 41.62752893 0 0 0 0 0 0 0 0 STD5.60
2026-01-12 22:31:50 20 17.90 0.100000 41.649648 41.62752893 0 0 0 0 0 0 0 0 STD5.60
2026-01-12 22:26:48 17 17.00 0.085000 41.649648 41.62752893 0 0 0 0 0 0 0 0 STD5.60
2026-01-12 22:21:47 19 15.10 0.095000 41.649648 41.62752893 0 0 0 0 0 0 0 0 STD5.60
2026-01-12 22:16:44 15 16.60 0.075000 41.649648 41.62752893 0 0 0 0 0 0 0 0 STD5.60
2026-01-12 22:11:43 18 18.20 0.090000 41.649648 41.62752893 0 0 0 0 0 0 0 0 STD5.60
2026-01-12 22:06:39 14 17.80 0.070000 41.649648 41.62752893 0 0 0 0 0 0 0 0 STD5.60
2026-01-12 22:01:36 21 19.00 0.105000 41.649648 41.62752893 0 0 0 0 0 0 0 0 STD5.60
2026-01-12 21:56:35 26 20.00 0.130000 41.649648 41.62752893 0 0 0 0 0 0 0 0 STD5.60
2026-01-12 21:51:32 24 19.50 0.120000 41.649648 41.62752893 0 0 0 0 0 0 0 0 STD5.60
2026-01-12 21:46:30 26 20.00 0.130000 41.649648 41.62752893 0 0 0 0 0 0 0 0 STD5.60
2026-01-12 21:41:29 18 19.90 0.090000 41.649648 41.62752893 0 0 0 0 0 0 0 0 STD5.60
2026-01-12 21:36:26 27 18.50 0.135000 41.649648 41.62752893 0 0 0 0 0 0 0 0 STD5.60
2026-01-12 21:31:25 18 17.50 0.090000 41.649648 41.62752893 0 0 0 0 0 0 0 0 STD5.60
2026-01-12 21:26:23 18 17.00 0.090000 41.649648 41.62752893 0 0 0 0 0 0 0 0 STD5.60
2026-01-12 21:21:21 20 16.80 0.100000 41.649648 41.62752893 0 0 0 0 0 0 0 0 STD5.60
2026-01-12 21:16:19 13 17.20 0.065000 41.649648 41.62752893 0 0 0 0 0 0 0 0 STD5.60
2026-01-12 21:11:17 19 19.10 0.095000 41.649648 41.62752893 0 0 0 0 0 0 0 0 STD5.60
2026-01-12 21:06:12 20 17.90 0.100000 41.649648 41.62752893 0 0 0 0 0 0 0 0 STD5.60
2026-01-12 21:01:11 16 16.90 0.080000 41.649648 41.62752893 0 0 0 0 0 0 0 0 STD5.60
2026-01-12 20:56:08 15 18.60 0.075000 41.649648 41.62752893 0 0 0 0 0 0 0 0 STD5.60
2026-01-12 20:51:07 18 19.30 0.090000 41.649648 41.62752893 0 0 0 0 0 0 0 0 STD5.60
2026-01-12 20:46:04 16 17.70 0.080000 41.649648 41.62752893 0 0 0 0 0 0 0 0 STD5.60
2026-01-12 20:41:02 15 17.50 0.075000 41.649648 41.62752893 0 0 0 0 0 0 0 0 STD5.60
2026-01-12 20:36:00 23 17.40 0.115000 41.649648 41.62752893 0 0 0 0 0 0 0 0 STD5.60
2026-01-12 20:30:58 16 15.70 0.080000 41.649648 41.62752893 0 0 0 0 0 0 0 0 STD5.60
2026-01-12 20:25:56 14 16.70 0.070000 41.649648 41.62752893 0 0 0 0 0 0 0 0 STD5.60
2026-01-12 20:20:54 19 18.10 0.095000 41.649648 41.62752893 0 0 0 0 0 0 0 0 STD5.60
2026-01-12 20:15:52 19 18.70 0.095000 41.649648 41.62752893 0 0 0 0 0 0 0 0 STD5.60
2026-01-12 20:10:50 24 20.10 0.120000 41.649648 41.62752893 0 0 0 0 0 0 0 0 STD5.60
2026-01-12 20:05:45 19 18.90 0.095000 41.649648 41.62752893 0 0 0 0 0 0 0 0 STD5.60
2026-01-12 20:00:42 17 17.40 0.085000 41.649648 41.62752893 0 0 0 0 0 0 0 0 STD5.60
2026-01-12 19:55:39 14 17.70 0.070000 41.649648 41.62752893 0 0 0 0 0 0 0 0 STD5.60
2026-01-12 19:50:37 15 17.20 0.075000 41.649648 41.62752893 0 0 0 0 0 0 0 0 STD5.60
2026-01-12 19:45:34 16 17.70 0.080000 41.649648 41.62752893 0 0 0 0 0 0 0 0 STD5.60
2026-01-12 19:40:32 19 18.40 0.095000 41.649648 41.62752893 0 0 0 0 0 0 0 0 STD5.60
2026-01-12 19:35:29 28 18.00 0.140000 41.649648 41.62752893 0 0 0 0 0 0 0 0 STD5.60
2026-01-12 19:30:27 16 18.60 0.080000 41.649648 41.62752893 0 0 0 0 0 0 0 0 STD5.60
2026-01-12 19:25:25 14 18.30 0.070000 41.649648 41.62752893 0 0 0 0 0 0 0 0 STD5.60
2026-01-12 19:20:21 12 16.90 0.060000 41.649648 41.62752893 0 0 0 0 0 0 0 0 STD5.60
2026-01-12 19:15:19 18 16.50 0.090000 41.649648 41.62752893 0 0 0 0 0 0 0 0 STD5.60
2026-01-12 19:10:16 15 20.50 0.075000 41.649648 41.62752893 0 0 0 0 0 0 0 0 STD5.60
2026-01-12 19:05:10 23 21.30 0.115000 41.649648 41.62752893 0 0 0 0 0 0 0 0 STD5.60
2026-01-12 19:00:08 23 17.90 0.115000 41.649648 41.62752893 0 0 0 0 0 0 0 0 STD5.60
2026-01-12 18:55:05 16 17.50 0.080000 41.649648 41.62752893 0 0 0 0 0 0 0 0 STD5.60
2026-01-12 18:50:03 20 18.80 0.100000 41.649648 41.62752893 0 0 0 0 0 0 0 0 STD5.60
2026-01-12 18:45:00 24 20.00 0.120000 41.649648 41.62752893 0 0 0 0 0 0 0 0 STD5.60
2026-01-12 18:39:57 22 20.40 0.110000 41.649648 41.62752893 0 0 0 0 0 0 0 0 STD5.60
2026-01-12 18:34:55 19 19.60 0.095000 41.649648 41.62752893 0 0 0 0 0 0 0 0 STD5.60
2026-01-12 18:29:52 21 18.70 0.105000 41.649648 41.62752893 0 0 0 0 0 0 0 0 STD5.60
2026-01-12 18:24:50 19 18.40 0.095000 41.649648 41.62752893 0 0 0 0 0 0 0 0 STD5.60
2026-01-12 18:19:47 19 18.30 0.095000 41.649648 41.62752893 0 0 0 0 0 0 0 0 STD5.60
2026-01-12 18:14:45 26 19.30 0.130000 41.649648 41.62752893 0 0 0 0 0 0 0 0 STD5.60
2026-01-12 18:09:43 18 19.70 0.090000 41.649648 41.62752893 0 0 0 0 0 0 0 0 STD5.60
2026-01-12 18:04:37 19 16.70 0.095000 41.649648 41.62752893 0 0 0 0 0 0 0 0 STD5.60
2026-01-12 17:59:34 11 15.40 0.055000 41.649648 41.62752893 0 0 0 0 0 0 0 0 STD5.60
2026-01-12 17:54:32 13 16.20 0.065000 41.649648 41.62752893 0 0 0 0 0 0 0 0 STD5.60
2026-01-12 17:49:29 16 17.40 0.080000 41.649648 41.62752893 0 0 0 0 0 0 0 0 STD5.60
2026-01-12 17:44:26 27 18.80 0.135000 41.649648 41.62752893 0 0 0 0 0 0 0 0 STD5.60
2026-01-12 17:39:24 25 18.50 0.125000 41.649648 41.62752893 0 0 0 0 0 0 0 0 STD5.60
2026-01-12 17:34:21 20 19.10 0.100000 41.649648 41.62752893 0 0 0 0 0 0 0 0 STD5.60
2026-01-12 17:29:18 17 17.50 0.085000 41.649648 41.62752893 0 0 0 0 0 0 0 0 STD5.60
2026-01-12 17:24:16 16 14.40 0.080000 41.649648 41.62752893 0 0 0 0 0 0 0 0 STD5.60
2026-01-12 17:19:13 12 15.00 0.060000 41.649648 41.62752893 0 0 0 0 0 0 0 0 STD5.60
2026-01-12 17:14:10 11 17.10 0.055000 41.649648 41.62752893 0 0 0 0 0 0 0 0 STD5.60
2026-01-12 17:09:08 21 20.50 0.105000 41.649648 41.62752893 0 0 0 0 0 0 0 0 STD5.60
2026-01-12 17:04:02 17 21.50 0.085000 41.649648 41.62752893 0 0 0 0 0 0 0 0 STD5.60
Geiger Counter World Map       A real time radiation map.     Copyright 2015 All rights reserved.